createdAt,value
2023-11-30T00:00:20.154Z,-3.81
2023-11-30T00:02:46.766Z,-4.13
2023-11-30T00:05:13.500Z,-3.71
2023-11-30T00:07:40.047Z,-3.64
2023-11-30T00:10:07.227Z,-3.57
2023-11-30T00:12:33.885Z,-3.57
2023-11-30T00:15:00.361Z,-3.51
2023-11-30T00:17:26.878Z,-3.53
2023-11-30T00:19:53.407Z,-3.65
2023-11-30T00:22:19.909Z,-3.47
2023-11-30T00:24:46.433Z,-3.58
2023-11-30T00:27:12.961Z,-3.61
2023-11-30T00:29:39.478Z,-3.62
2023-11-30T00:32:06.348Z,-3.82
2023-11-30T00:34:32.824Z,-3.84
2023-11-30T00:36:59.283Z,-3.79
2023-11-30T00:39:25.846Z,-3.73
2023-11-30T00:41:52.473Z,-3.62
2023-11-30T00:44:19.625Z,-3.58
2023-11-30T00:46:46.167Z,-3.56
2023-11-30T00:49:12.734Z,-3.60
2023-11-30T00:51:39.230Z,-3.64
2023-11-30T00:54:05.952Z,-3.69
2023-11-30T00:56:32.441Z,-3.45
2023-11-30T00:58:58.933Z,-3.34
2023-11-30T01:01:25.387Z,-3.35
2023-11-30T01:03:51.875Z,-3.34
2023-11-30T01:06:18.427Z,-3.33
2023-11-30T01:08:45.042Z,-3.36
2023-11-30T01:11:11.511Z,-3.30
2023-11-30T01:13:38.015Z,-3.32
2023-11-30T01:16:04.898Z,-3.41
2023-11-30T01:18:31.520Z,-3.44
2023-11-30T01:20:58.115Z,-3.47
2023-11-30T01:23:24.682Z,-3.46
2023-11-30T01:25:51.229Z,-3.76
2023-11-30T01:28:17.685Z,-3.77
2023-11-30T01:30:44.264Z,-3.73
2023-11-30T01:33:10.887Z,-3.62
2023-11-30T01:35:37.602Z,-3.59
2023-11-30T01:38:04.170Z,-3.54
2023-11-30T01:40:31.525Z,-3.47
2023-11-30T01:42:57.995Z,-3.49
2023-11-30T01:45:24.549Z,-3.51
2023-11-30T01:47:51.297Z,-3.58
2023-11-30T01:50:18.444Z,-3.61
2023-11-30T01:52:45.326Z,-3.75
2023-11-30T01:55:13.361Z,-4.09
2023-11-30T01:57:40.087Z,-3.66
2023-11-30T02:00:07.918Z,-3.86
2023-11-30T02:02:35.696Z,-3.74
2023-11-30T02:05:02.224Z,-3.90
2023-11-30T02:07:28.780Z,-3.67
2023-11-30T02:09:55.375Z,-3.71
2023-11-30T02:12:21.934Z,-3.70
2023-11-30T02:14:48.463Z,-3.78
2023-11-30T02:17:14.932Z,-3.86
2023-11-30T02:19:41.467Z,-3.96
2023-11-30T02:22:08.528Z,-4.04
2023-11-30T02:24:35.213Z,-4.04
2023-11-30T02:27:01.718Z,-4.03
2023-11-30T02:29:28.245Z,-4.02
2023-11-30T02:31:54.789Z,-4.01
2023-11-30T02:34:21.305Z,-3.89
2023-11-30T02:36:47.763Z,-3.89
2023-11-30T02:39:14.356Z,-3.81
2023-11-30T02:41:40.910Z,-3.68
2023-11-30T02:44:09.237Z,-3.57
2023-11-30T02:46:35.783Z,-3.51
2023-11-30T02:49:02.358Z,-3.40
2023-11-30T02:51:28.968Z,-3.32
2023-11-30T02:53:55.551Z,-3.19
2023-11-30T02:56:22.080Z,-3.14
2023-11-30T02:58:48.536Z,-3.05
2023-11-30T03:01:15.025Z,-3.02
2023-11-30T03:03:41.863Z,-3.29
2023-11-30T03:06:12.614Z,-2.82
2023-11-30T03:08:39.333Z,-2.76
2023-11-30T03:11:06.006Z,-2.64
2023-11-30T03:13:32.657Z,-2.47
2023-11-30T03:15:59.156Z,-2.34
2023-11-30T03:18:25.731Z,-2.23
2023-11-30T03:20:52.461Z,-2.13
2023-11-30T03:23:19.052Z,-2.01
2023-11-30T03:25:46.965Z,-1.91
2023-11-30T03:28:13.959Z,-1.84
2023-11-30T03:30:40.576Z,-1.79
2023-11-30T03:33:07.245Z,-1.60
2023-11-30T03:35:33.889Z,-1.56
2023-11-30T03:38:00.385Z,-1.46
2023-11-30T03:40:26.872Z,-1.39
2023-11-30T03:42:53.361Z,-1.41
2023-11-30T03:45:19.878Z,-1.39
2023-11-30T03:47:46.444Z,-1.47
2023-11-30T03:50:12.967Z,-1.33
2023-11-30T03:52:39.517Z,-1.48
2023-11-30T03:55:06.458Z,-1.30
2023-11-30T03:57:33.025Z,-1.39
2023-11-30T03:59:59.634Z,-1.44
2023-11-30T04:02:26.259Z,-1.52
2023-11-30T04:04:53.017Z,-1.35
2023-11-30T04:07:19.608Z,-1.29
2023-11-30T04:09:47.628Z,-1.47
2023-11-30T04:12:14.157Z,-1.37
2023-11-30T04:14:40.659Z,-1.52
2023-11-30T04:17:07.151Z,-1.42
2023-11-30T04:19:33.818Z,-1.21
2023-11-30T04:22:00.370Z,-1.32
2023-11-30T04:24:26.970Z,-1.08
2023-11-30T04:26:54.463Z,-0.95
2023-11-30T04:29:20.965Z,-0.86
2023-11-30T04:31:47.506Z,-0.86
2023-11-30T04:34:13.971Z,-0.73
2023-11-30T04:36:40.502Z,-0.86
2023-11-30T04:39:07.456Z,-0.94
2023-11-30T04:41:34.085Z,-0.58
2023-11-30T04:44:00.545Z,-0.63
2023-11-30T04:46:27.734Z,-0.73
2023-11-30T04:48:55.751Z,-0.80
2023-11-30T04:51:23.074Z,-1.01
2023-11-30T04:53:50.213Z,-0.94
2023-11-30T04:56:16.699Z,-0.78
2023-11-30T04:58:43.960Z,-0.54
2023-11-30T05:01:10.646Z,-0.45
2023-11-30T05:03:37.406Z,-0.48
2023-11-30T05:06:04.329Z,-0.40
2023-11-30T05:08:30.836Z,-0.28
2023-11-30T05:10:58.782Z,-0.44
2023-11-30T05:13:25.552Z,-0.20
2023-11-30T05:15:52.083Z,-0.18
2023-11-30T05:18:19.402Z,-0.17
2023-11-30T05:20:45.940Z,-0.35
2023-11-30T05:23:12.523Z,-0.23
2023-11-30T05:25:38.996Z,-0.45
2023-11-30T05:28:07.447Z,-0.59
2023-11-30T05:30:34.198Z,-0.46
2023-11-30T05:33:00.876Z,-0.17
2023-11-30T05:35:27.457Z,-0.12
2023-11-30T05:37:54.467Z,0.03
2023-11-30T05:40:21.144Z,-0.04
2023-11-30T05:42:48.717Z,-0.21
2023-11-30T05:45:15.703Z,-0.09
2023-11-30T05:47:42.425Z,-0.16
2023-11-30T05:50:10.872Z,-0.04
2023-11-30T05:52:37.478Z,0.04
2023-11-30T05:55:05.482Z,0.22
2023-11-30T05:57:32.045Z,0.22
2023-11-30T05:59:58.824Z,0.02
2023-11-30T06:02:25.500Z,0.10
2023-11-30T06:04:55.465Z,0.16
2023-11-30T06:07:24.510Z,0.30
2023-11-30T06:09:51.794Z,0.24
2023-11-30T06:12:19.696Z,0.31
2023-11-30T06:14:46.189Z,0.19
2023-11-30T06:17:13.321Z,0.44
2023-11-30T06:19:40.596Z,0.37
2023-11-30T06:22:07.470Z,0.51
2023-11-30T06:24:35.358Z,0.24
2023-11-30T06:27:02.791Z,0.20
2023-11-30T06:29:30.478Z,0.19
2023-11-30T06:32:03.728Z,0.27
2023-11-30T06:34:30.256Z,0.33
2023-11-30T06:36:57.114Z,0.28
2023-11-30T06:39:23.640Z,0.31
2023-11-30T06:41:52.326Z,0.41
2023-11-30T06:44:20.076Z,0.50
2023-11-30T06:46:47.820Z,0.40
2023-11-30T06:49:14.417Z,0.49
2023-11-30T06:51:41.094Z,0.60
2023-11-30T06:54:07.708Z,0.63
2023-11-30T06:56:34.204Z,0.59
2023-11-30T06:59:00.678Z,0.71
2023-11-30T07:01:27.405Z,0.66
2023-11-30T07:03:55.429Z,0.57
2023-11-30T07:06:22.855Z,0.62
2023-11-30T07:08:49.431Z,0.66
2023-11-30T07:11:16.072Z,0.44
2023-11-30T07:13:42.623Z,0.51
2023-11-30T07:16:09.956Z,0.66
2023-11-30T07:18:36.476Z,0.52
2023-11-30T07:21:04.243Z,0.66
2023-11-30T07:23:31.075Z,0.76
2023-11-30T07:25:59.736Z,0.85
2023-11-30T07:28:27.388Z,0.86
2023-11-30T07:30:53.989Z,0.88
2023-11-30T07:33:20.625Z,0.99
2023-11-30T07:35:47.159Z,1.04
2023-11-30T07:38:13.735Z,1.07
2023-11-30T07:40:40.229Z,0.78
2023-11-30T07:43:06.825Z,1.05
2023-11-30T07:45:33.475Z,0.92
2023-11-30T07:48:00.812Z,1.02
2023-11-30T07:50:28.687Z,1.05
2023-11-30T07:52:55.385Z,1.11
2023-11-30T07:55:22.310Z,1.14
2023-11-30T07:57:49.697Z,0.87
2023-11-30T08:00:16.772Z,0.86
2023-11-30T08:02:43.877Z,0.63
2023-11-30T08:05:10.561Z,0.41
2023-11-30T08:07:37.115Z,0.80
2023-11-30T08:10:06.278Z,0.79
2023-11-30T08:12:33.007Z,0.83
2023-11-30T08:14:59.599Z,1.01
2023-11-30T08:17:26.425Z,1.02
2023-11-30T08:19:53.223Z,0.65
2023-11-30T08:22:19.715Z,0.82
2023-11-30T08:24:46.349Z,0.70
2023-11-30T08:27:13.047Z,0.34
2023-11-30T08:29:39.680Z,0.45
2023-11-30T08:32:06.842Z,0.51
2023-11-30T08:34:33.409Z,0.67
2023-11-30T08:37:01.136Z,0.74
2023-11-30T08:39:29.862Z,0.64
2023-11-30T08:41:56.822Z,0.82
2023-11-30T08:44:26.715Z,0.86
2023-11-30T08:46:53.856Z,0.94
2023-11-30T08:49:20.549Z,1.03
2023-11-30T08:51:47.257Z,1.07
2023-11-30T08:54:14.048Z,1.10
2023-11-30T08:56:40.566Z,1.15
2023-11-30T08:59:07.070Z,1.27
2023-11-30T09:01:34.116Z,0.98
2023-11-30T09:04:06.188Z,0.92
2023-11-30T09:06:34.915Z,0.97
2023-11-30T09:09:02.675Z,1.06
2023-11-30T09:11:34.523Z,1.18
2023-11-30T09:14:01.324Z,1.37
2023-11-30T09:16:27.895Z,1.27
2023-11-30T09:18:57.728Z,1.31
2023-11-30T09:21:26.948Z,1.35
2023-11-30T09:23:53.970Z,1.40
2023-11-30T09:26:21.911Z,1.43
2023-11-30T09:28:48.701Z,1.40
2023-11-30T09:31:15.537Z,1.72
2023-11-30T09:33:43.063Z,1.86
2023-11-30T09:36:10.232Z,1.91
2023-11-30T09:38:36.945Z,1.95
2023-11-30T09:41:07.163Z,1.96
2023-11-30T09:43:34.243Z,1.96
2023-11-30T09:46:01.250Z,1.91
2023-11-30T09:48:28.066Z,2.03
2023-11-30T09:50:54.661Z,2.04
2023-11-30T09:53:21.183Z,2.14
2023-11-30T09:55:47.704Z,2.04
2023-11-30T09:58:16.212Z,2.03
2023-11-30T10:00:42.930Z,2.22
2023-11-30T10:03:10.413Z,2.08
2023-11-30T10:05:37.093Z,2.14
2023-11-30T10:08:04.244Z,2.20
2023-11-30T10:10:30.835Z,2.15
2023-11-30T10:12:57.326Z,2.02
2023-11-30T10:15:24.180Z,2.03
2023-11-30T10:17:51.122Z,2.06
2023-11-30T10:20:19.745Z,2.24
2023-11-30T10:22:46.613Z,2.24
2023-11-30T10:25:14.219Z,2.22
2023-11-30T10:27:42.536Z,2.08
2023-11-30T10:30:12.833Z,2.03
2023-11-30T10:32:40.839Z,2.10
2023-11-30T10:35:13.557Z,2.04
2023-11-30T10:37:46.808Z,2.04
2023-11-30T10:40:14.209Z,2.08
2023-11-30T10:42:47.503Z,1.94
2023-11-30T10:45:16.628Z,1.72
2023-11-30T10:47:44.053Z,1.81
2023-11-30T10:50:13.360Z,1.91
2023-11-30T10:52:44.427Z,2.01
2023-11-30T10:55:17.619Z,1.95
2023-11-30T10:57:45.294Z,2.01
2023-11-30T11:00:16.866Z,2.09
2023-11-30T11:02:46.022Z,2.03
2023-11-30T11:05:16.922Z,1.83
2023-11-30T11:07:50.933Z,1.97
2023-11-30T11:10:28.071Z,2.07
2023-11-30T11:12:58.319Z,2.13
2023-11-30T11:15:25.245Z,2.14
2023-11-30T11:17:55.325Z,1.99
2023-11-30T11:20:27.022Z,2.23
2023-11-30T11:22:57.534Z,2.24
2023-11-30T11:25:26.259Z,2.09
2023-11-30T11:27:52.801Z,2.15
2023-11-30T11:30:19.384Z,2.28
2023-11-30T11:32:46.345Z,2.11
2023-11-30T11:35:13.053Z,2.33
2023-11-30T11:37:39.688Z,2.38
2023-11-30T11:40:06.553Z,2.45
2023-11-30T11:42:33.849Z,2.42
2023-11-30T11:45:02.797Z,2.12
2023-11-30T11:47:30.476Z,2.39
2023-11-30T11:49:57.215Z,2.40
2023-11-30T11:52:24.316Z,2.28
2023-11-30T11:55:23.730Z,2.16
2023-11-30T11:57:52.859Z,2.00
2023-11-30T12:00:21.561Z,2.19
2023-11-30T12:02:49.538Z,2.37
2023-11-30T12:05:26.739Z,2.44
2023-11-30T12:07:57.216Z,2.37
2023-11-30T12:10:28.021Z,2.45
2023-11-30T12:12:54.519Z,2.50
2023-11-30T12:15:21.016Z,2.18
2023-11-30T12:17:47.539Z,2.05
2023-11-30T12:20:18.936Z,2.13
2023-11-30T12:22:46.537Z,1.95
2023-11-30T12:25:13.607Z,2.06
2023-11-30T12:27:40.435Z,2.15
2023-11-30T12:30:09.464Z,2.05
2023-11-30T12:32:38.801Z,2.23
2023-11-30T12:35:07.788Z,2.18
2023-11-30T12:37:36.568Z,2.04
2023-11-30T12:40:05.002Z,1.77
2023-11-30T12:42:32.245Z,1.65
2023-11-30T12:44:59.303Z,1.87
2023-11-30T12:47:26.331Z,1.80
2023-11-30T12:49:52.874Z,1.60
2023-11-30T12:52:21.660Z,1.45
2023-11-30T12:54:49.932Z,1.80
2023-11-30T12:57:16.448Z,1.79
2023-11-30T12:59:43.282Z,1.89
2023-11-30T13:02:11.982Z,2.04
2023-11-30T13:04:40.721Z,1.71
2023-11-30T13:07:07.362Z,1.91
2023-11-30T13:09:35.890Z,1.93
2023-11-30T13:12:03.668Z,2.05
2023-11-30T13:14:30.670Z,1.90
2023-11-30T13:16:57.179Z,1.98
2023-11-30T13:19:24.880Z,2.07
2023-11-30T13:21:53.116Z,2.04
2023-11-30T13:24:20.248Z,1.98
2023-11-30T13:26:48.760Z,2.09
2023-11-30T13:29:15.296Z,1.91
2023-11-30T13:31:41.913Z,2.02
2023-11-30T13:34:08.607Z,2.10
2023-11-30T13:36:35.231Z,2.10
2023-11-30T13:39:01.794Z,2.01
2023-11-30T13:41:28.342Z,1.93
2023-11-30T13:43:55.168Z,1.88
2023-11-30T13:46:22.399Z,1.88
2023-11-30T13:48:49.264Z,1.93
2023-11-30T13:51:16.129Z,1.97
2023-11-30T13:53:42.812Z,1.99
2023-11-30T13:56:10.202Z,2.02
2023-11-30T13:58:36.681Z,1.93
2023-11-30T14:01:04.164Z,2.04
2023-11-30T14:03:30.995Z,1.75
2023-11-30T14:05:58.270Z,1.87
2023-11-30T14:08:27.616Z,1.86
2023-11-30T14:10:54.252Z,1.82
2023-11-30T14:13:20.784Z,1.97
2023-11-30T14:15:47.493Z,1.80
2023-11-30T14:18:14.363Z,1.89
2023-11-30T14:20:41.535Z,1.96
2023-11-30T14:23:08.508Z,1.91
2023-11-30T14:25:35.030Z,1.91
2023-11-30T14:28:07.552Z,1.71
2023-11-30T14:30:38.493Z,1.73
2023-11-30T14:33:05.394Z,1.57
2023-11-30T14:35:32.924Z,1.56
2023-11-30T14:38:00.125Z,1.65
2023-11-30T14:40:26.754Z,1.74
2023-11-30T14:42:53.658Z,1.81
2023-11-30T14:45:20.337Z,1.52
2023-11-30T14:47:47.961Z,1.67
2023-11-30T14:50:16.808Z,1.71
2023-11-30T14:52:45.972Z,1.49
2023-11-30T14:55:13.702Z,1.55
2023-11-30T14:57:42.436Z,1.32
2023-11-30T15:00:13.789Z,1.24
2023-11-30T15:02:42.326Z,1.50
2023-11-30T15:05:15.325Z,1.39
2023-11-30T15:07:42.546Z,1.53
2023-11-30T15:10:12.349Z,1.67
2023-11-30T15:12:39.400Z,1.68
2023-11-30T15:15:13.897Z,1.78
2023-11-30T15:17:42.818Z,1.60
2023-11-30T15:20:10.878Z,1.67
2023-11-30T15:22:37.620Z,1.72
2023-11-30T15:25:07.382Z,1.60
2023-11-30T15:27:38.357Z,1.88
2023-11-30T15:30:05.875Z,1.88
2023-11-30T15:32:32.534Z,1.93
2023-11-30T15:34:59.061Z,2.03
2023-11-30T15:37:25.687Z,2.05
2023-11-30T15:39:54.273Z,1.91
2023-11-30T15:42:24.025Z,1.69
2023-11-30T15:44:50.483Z,1.83
2023-11-30T15:47:17.443Z,1.88
2023-11-30T15:49:44.161Z,1.98
2023-11-30T15:52:10.669Z,1.99
2023-11-30T15:54:40.963Z,2.10
2023-11-30T15:57:07.654Z,2.12
2023-11-30T15:59:34.361Z,2.03
2023-11-30T16:02:01.583Z,1.90
2023-11-30T16:04:28.230Z,1.84
2023-11-30T16:06:54.864Z,1.87
2023-11-30T16:09:21.383Z,1.92
2023-11-30T16:11:50.602Z,1.86
2023-11-30T16:14:17.273Z,1.64
2023-11-30T16:16:45.431Z,1.54
2023-11-30T16:19:12.452Z,1.61
2023-11-30T16:21:39.168Z,1.86
2023-11-30T16:24:06.095Z,1.70
2023-11-30T16:26:34.684Z,1.77
2023-11-30T16:29:01.222Z,1.92
2023-11-30T16:31:27.783Z,1.80
2023-11-30T16:33:54.454Z,1.65
2023-11-30T16:36:21.097Z,1.89
2023-11-30T16:38:47.614Z,1.68
2023-11-30T16:41:14.996Z,1.77
2023-11-30T16:43:41.621Z,1.71
2023-11-30T16:46:08.642Z,1.84
2023-11-30T16:48:36.072Z,1.91
2023-11-30T16:51:07.409Z,1.96
2023-11-30T16:53:34.010Z,1.90
2023-11-30T16:56:00.561Z,1.92
2023-11-30T16:58:30.413Z,2.01
2023-11-30T17:00:57.424Z,2.04
2023-11-30T17:03:26.722Z,2.06
2023-11-30T17:05:53.787Z,1.86
2023-11-30T17:08:20.503Z,2.03
2023-11-30T17:10:47.507Z,2.15
2023-11-30T17:13:14.177Z,2.04
2023-11-30T17:15:40.708Z,2.08
2023-11-30T17:18:07.265Z,2.10
2023-11-30T17:20:33.746Z,2.07
2023-11-30T17:23:00.288Z,2.17
2023-11-30T17:25:26.756Z,2.08
2023-11-30T17:27:54.843Z,2.16
2023-11-30T17:30:21.493Z,2.10
2023-11-30T17:32:48.222Z,2.15
2023-11-30T17:35:15.097Z,1.97
2023-11-30T17:37:41.797Z,1.96
2023-11-30T17:40:11.695Z,1.81
2023-11-30T17:42:38.846Z,2.09
2023-11-30T17:45:06.432Z,1.97
2023-11-30T17:47:34.437Z,1.98
2023-11-30T17:50:03.024Z,1.98
2023-11-30T17:52:30.881Z,1.82
2023-11-30T17:54:57.427Z,1.61
2023-11-30T17:57:23.961Z,1.63
2023-11-30T17:59:50.514Z,1.57
2023-11-30T18:02:17.099Z,1.80
2023-11-30T18:04:43.668Z,1.92
2023-11-30T18:07:11.568Z,1.90
2023-11-30T18:09:38.621Z,1.92
2023-11-30T18:12:06.005Z,1.81
2023-11-30T18:14:33.305Z,1.81
2023-11-30T18:17:01.314Z,1.79
2023-11-30T18:19:28.237Z,1.81
2023-11-30T18:21:54.935Z,1.86
2023-11-30T18:24:29.973Z,1.83
2023-11-30T18:26:58.426Z,1.77
2023-11-30T18:29:25.314Z,1.74
2023-11-30T18:31:52.561Z,1.78
2023-11-30T18:34:19.741Z,1.94
2023-11-30T18:36:46.530Z,1.99
2023-11-30T18:39:14.555Z,1.91
2023-11-30T18:41:41.352Z,1.95
2023-11-30T18:44:08.641Z,1.63
2023-11-30T18:46:35.227Z,1.70
2023-11-30T18:49:05.158Z,1.76
2023-11-30T18:51:32.950Z,1.94
2023-11-30T18:54:01.037Z,1.98
2023-11-30T18:56:29.427Z,1.82
2023-11-30T18:58:56.828Z,1.90
2023-11-30T19:01:23.460Z,1.67
2023-11-30T19:03:50.014Z,1.93
2023-11-30T19:06:18.366Z,1.93
2023-11-30T19:08:46.060Z,1.96
2023-11-30T19:11:13.183Z,2.11
2023-11-30T19:13:40.450Z,2.10
2023-11-30T19:16:07.860Z,2.07
2023-11-30T19:18:34.458Z,2.01
2023-11-30T19:21:01.860Z,1.97
2023-11-30T19:23:28.403Z,1.90
2023-11-30T19:25:54.881Z,1.99
2023-11-30T19:28:21.391Z,2.09
2023-11-30T19:30:48.020Z,2.12
2023-11-30T19:33:14.588Z,2.04
2023-11-30T19:35:41.124Z,2.04
2023-11-30T19:38:07.622Z,2.14
2023-11-30T19:40:34.157Z,2.16
2023-11-30T19:43:00.702Z,2.34
2023-11-30T19:45:27.187Z,2.41
2023-11-30T19:47:53.778Z,2.40
2023-11-30T19:50:20.364Z,2.48
2023-11-30T19:52:46.974Z,2.54
2023-11-30T19:55:13.500Z,2.52
2023-11-30T19:57:40.092Z,2.59
2023-11-30T20:00:07.320Z,2.68
2023-11-30T20:02:33.891Z,2.68
2023-11-30T20:05:00.457Z,2.55
2023-11-30T20:07:27.030Z,2.55
2023-11-30T20:09:53.596Z,2.24
2023-11-30T20:12:20.088Z,2.56
2023-11-30T20:14:46.539Z,2.55
2023-11-30T20:17:13.014Z,2.50
2023-11-30T20:19:39.622Z,2.62
2023-11-30T20:22:06.206Z,2.62
2023-11-30T20:24:35.220Z,2.60
2023-11-30T20:27:08.549Z,2.45
2023-11-30T20:29:35.218Z,2.57
2023-11-30T20:32:02.066Z,2.44
2023-11-30T20:34:29.008Z,2.55
2023-11-30T20:36:56.260Z,2.45
2023-11-30T20:39:22.985Z,2.40
2023-11-30T20:41:49.453Z,2.61
2023-11-30T20:44:15.957Z,2.57
2023-11-30T20:46:42.551Z,2.42
2023-11-30T20:49:09.146Z,2.72
2023-11-30T20:51:35.706Z,2.60
2023-11-30T20:54:07.442Z,2.79
2023-11-30T20:56:35.717Z,2.83
2023-11-30T20:59:02.641Z,2.85
2023-11-30T21:01:30.470Z,2.55
2023-11-30T21:03:57.162Z,2.39
2023-11-30T21:06:24.068Z,2.48
2023-11-30T21:08:50.674Z,2.55
2023-11-30T21:11:17.319Z,2.63
2023-11-30T21:13:43.873Z,2.59
2023-11-30T21:16:10.518Z,2.69
2023-11-30T21:18:37.868Z,2.78
2023-11-30T21:21:04.725Z,2.72
2023-11-30T21:23:31.249Z,2.75
2023-11-30T21:25:57.710Z,2.80
2023-11-30T21:28:24.186Z,2.66
2023-11-30T21:30:50.794Z,2.72
2023-11-30T21:33:17.386Z,2.78
2023-11-30T21:35:43.849Z,2.82
2023-11-30T21:38:10.306Z,2.79
2023-11-30T21:40:36.812Z,2.65
2023-11-30T21:43:03.425Z,2.63
2023-11-30T21:45:30.059Z,2.74
2023-11-30T21:47:56.673Z,2.75
2023-11-30T21:50:25.424Z,2.79
2023-11-30T21:52:52.878Z,2.72
2023-11-30T21:55:19.547Z,2.75
2023-11-30T21:57:46.229Z,2.45
2023-11-30T22:00:13.895Z,2.68
2023-11-30T22:02:41.796Z,2.49
2023-11-30T22:05:08.753Z,2.77
2023-11-30T22:07:35.313Z,2.54
2023-11-30T22:10:03.761Z,2.25
2023-11-30T22:12:33.256Z,2.61
2023-11-30T22:15:01.077Z,2.72
2023-11-30T22:17:30.970Z,2.86
2023-11-30T22:19:58.097Z,2.84
2023-11-30T22:22:24.692Z,2.73
2023-11-30T22:24:51.581Z,2.80
2023-11-30T22:27:18.410Z,2.71
2023-11-30T22:29:44.959Z,2.79
2023-11-30T22:32:12.734Z,2.81
2023-11-30T22:34:39.264Z,2.73
2023-11-30T22:37:05.887Z,2.69
2023-11-30T22:39:32.424Z,2.69
2023-11-30T22:41:58.916Z,2.72
2023-11-30T22:44:25.497Z,2.84
2023-11-30T22:46:52.580Z,2.91
2023-11-30T22:49:20.630Z,2.48
2023-11-30T22:51:50.207Z,2.89
2023-11-30T22:54:16.843Z,2.91
2023-11-30T22:56:43.414Z,2.75
2023-11-30T22:59:10.007Z,2.86
2023-11-30T23:01:36.739Z,2.89
2023-11-30T23:04:03.618Z,2.77
2023-11-30T23:06:30.305Z,2.86
2023-11-30T23:08:56.914Z,2.94
2023-11-30T23:11:23.432Z,3.00
2023-11-30T23:13:49.950Z,2.90
2023-11-30T23:16:16.824Z,2.88
2023-11-30T23:18:43.377Z,2.87
2023-11-30T23:21:09.922Z,2.86
2023-11-30T23:23:36.388Z,2.98
2023-11-30T23:26:03.128Z,2.95
2023-11-30T23:28:29.690Z,2.84
2023-11-30T23:30:57.536Z,2.89
2023-11-30T23:33:24.161Z,2.94
2023-11-30T23:35:50.665Z,2.95
2023-11-30T23:38:17.104Z,2.95
2023-11-30T23:40:43.747Z,2.96
2023-11-30T23:43:10.313Z,2.95
2023-11-30T23:45:37.007Z,2.81
2023-11-30T23:48:03.724Z,2.95
2023-11-30T23:50:30.286Z,2.94
2023-11-30T23:52:56.745Z,3.03
2023-11-30T23:55:23.212Z,3.09
2023-11-30T23:57:49.735Z,3.05
